カンザスシティ の空港の天気 - METARとTAF

カンザスシティ国際空港 ( KMCI / MCI ) - アメリカ ミズーリ州カンザスシティ
飛行場実況気象(Metar)
観測時間10/15 11:53 CDT (10/15 16:53 UTC)
風向・風速北北西 7m/s 瞬間風速10m/s
視程10km以上
天気現象
全天の4割程度の雲 雲底高度 3960m
気温16.7℃
湿度50%
気圧1014.5hPa
METARKMCI 151653Z 34013G19KT 10SM SCT130 17/06 A2998 RMK AO2 SLP145 T01670061
過去の天気等 Google飛行場航空写真 Wunderground天気予報

過去48時間のMETAR

飛行場予報(TAF)
発表時間: 10/15 12:26 CDT (10/15 17:26 UTC)
予報対象時間: 15日13時 CDT ~ 16日13時 CDT
風向・風速北北西 8m/s
視程10km以上
全天の4割程度の雲 雲底高度 4570m
15日21時 CDT から
風向・風速北北西 5m/s
視程10km以上
全天の4割程度の雲 雲底高度 1070m
KMCI 151726Z 1518/1618 33015KT P6SM SCT150
FM160200 33010KT P6SM SCT035